sensor_id;sensor_type;location;lat;lon;timestamp;temperature;humidity
34989;DHT22;21192;40.182;44.516;2022-08-19T00:00:05;27.00;42.90
34989;DHT22;21192;40.182;44.516;2022-08-19T00:02:32;26.90;43.10
34989;DHT22;21192;40.182;44.516;2022-08-19T00:04:58;26.90;43.20
34989;DHT22;21192;40.182;44.516;2022-08-19T00:07:24;26.90;43.50
34989;DHT22;21192;40.182;44.516;2022-08-19T00:09:50;26.80;43.40
34989;DHT22;21192;40.182;44.516;2022-08-19T00:12:16;26.80;43.30
34989;DHT22;21192;40.182;44.516;2022-08-19T00:14:42;26.80;43.30
34989;DHT22;21192;40.182;44.516;2022-08-19T00:17:08;26.70;43.30
34989;DHT22;21192;40.182;44.516;2022-08-19T00:19:35;26.70;43.60
34989;DHT22;21192;40.182;44.516;2022-08-19T00:22:01;26.70;43.90
34989;DHT22;21192;40.182;44.516;2022-08-19T00:24:28;26.70;44.10
34989;DHT22;21192;40.182;44.516;2022-08-19T00:26:55;26.70;45.10
34989;DHT22;21192;40.182;44.516;2022-08-19T00:29:24;26.70;44.60
34989;DHT22;21192;40.182;44.516;2022-08-19T00:31:51;26.70;44.70
34989;DHT22;21192;40.182;44.516;2022-08-19T00:34:21;26.70;44.40
34989;DHT22;21192;40.182;44.516;2022-08-19T00:36:48;26.60;44.50
34989;DHT22;21192;40.182;44.516;2022-08-19T00:39:15;26.60;44.40
34989;DHT22;21192;40.182;44.516;2022-08-19T00:41:44;26.60;44.20
34989;DHT22;21192;40.182;44.516;2022-08-19T00:46:44;26.70;44.60
34989;DHT22;21192;40.182;44.516;2022-08-19T00:49:16;26.60;44.70
34989;DHT22;21192;40.182;44.516;2022-08-19T00:51:45;26.60;44.80
34989;DHT22;21192;40.182;44.516;2022-08-19T00:54:12;26.60;44.80
34989;DHT22;21192;40.182;44.516;2022-08-19T00:56:39;26.60;44.50
34989;DHT22;21192;40.182;44.516;2022-08-19T00:59:06;26.60;44.60
34989;DHT22;21192;40.182;44.516;2022-08-19T01:01:39;26.50;45.00
34989;DHT22;21192;40.182;44.516;2022-08-19T01:04:05;26.50;45.70
34989;DHT22;21192;40.182;44.516;2022-08-19T01:06:32;26.40;45.10
34989;DHT22;21192;40.182;44.516;2022-08-19T01:08:59;26.40;45.00
34989;DHT22;21192;40.182;44.516;2022-08-19T01:11:27;26.40;44.80
34989;DHT22;21192;40.182;44.516;2022-08-19T01:13:54;26.40;45.20
34989;DHT22;21192;40.182;44.516;2022-08-19T01:16:22;26.40;44.90
34989;DHT22;21192;40.182;44.516;2022-08-19T01:18:49;26.40;44.70
34989;DHT22;21192;40.182;44.516;2022-08-19T01:21:40;26.40;44.40
34989;DHT22;21192;40.182;44.516;2022-08-19T01:24:07;26.30;44.40
34989;DHT22;21192;40.182;44.516;2022-08-19T01:26:41;26.40;44.40
34989;DHT22;21192;40.182;44.516;2022-08-19T01:29:09;26.40;44.30
34989;DHT22;21192;40.182;44.516;2022-08-19T01:31:36;26.40;44.50
34989;DHT22;21192;40.182;44.516;2022-08-19T01:34:03;26.40;44.70
34989;DHT22;21192;40.182;44.516;2022-08-19T01:36:43;26.40;44.70
34989;DHT22;21192;40.182;44.516;2022-08-19T01:39:19;26.30;45.00
34989;DHT22;21192;40.182;44.516;2022-08-19T01:41:46;26.30;45.40
34989;DHT22;21192;40.182;44.516;2022-08-19T01:44:14;26.20;45.20
34989;DHT22;21192;40.182;44.516;2022-08-19T01:46:41;26.20;45.20
34989;DHT22;21192;40.182;44.516;2022-08-19T01:49:08;26.20;45.40
34989;DHT22;21192;40.182;44.516;2022-08-19T01:51:35;26.20;45.40
34989;DHT22;21192;40.182;44.516;2022-08-19T01:54:01;26.10;45.30
34989;DHT22;21192;40.182;44.516;2022-08-19T01:56:27;26.00;45.30
34989;DHT22;21192;40.182;44.516;2022-08-19T01:59:00;26.10;45.90
34989;DHT22;21192;40.182;44.516;2022-08-19T02:01:27;26.10;45.60
34989;DHT22;21192;40.182;44.516;2022-08-19T02:03:58;26.10;45.70
34989;DHT22;21192;40.182;44.516;2022-08-19T02:06:24;26.10;45.60
34989;DHT22;21192;40.182;44.516;2022-08-19T02:08:50;26.00;45.30
34989;DHT22;21192;40.182;44.516;2022-08-19T02:11:26;26.00;45.30
34989;DHT22;21192;40.182;44.516;2022-08-19T02:13:54;26.00;45.40
34989;DHT22;21192;40.182;44.516;2022-08-19T02:16:21;25.90;45.30
34989;DHT22;21192;40.182;44.516;2022-08-19T02:18:47;25.90;45.30
34989;DHT22;21192;40.182;44.516;2022-08-19T02:21:17;25.90;45.30
34989;DHT22;21192;40.182;44.516;2022-08-19T02:23:44;25.90;45.30
34989;DHT22;21192;40.182;44.516;2022-08-19T02:26:10;25.80;45.20
34989;DHT22;21192;40.182;44.516;2022-08-19T02:28:36;25.80;45.30
34989;DHT22;21192;40.182;44.516;2022-08-19T02:31:03;25.80;45.20
34989;DHT22;21192;40.182;44.516;2022-08-19T02:33:29;25.90;45.20
34989;DHT22;21192;40.182;44.516;2022-08-19T02:35:55;25.90;45.00
34989;DHT22;21192;40.182;44.516;2022-08-19T02:38:23;26.00;45.10
34989;DHT22;21192;40.182;44.516;2022-08-19T02:41:00;26.00;45.20
34989;DHT22;21192;40.182;44.516;2022-08-19T02:43:27;26.00;45.20
34989;DHT22;21192;40.182;44.516;2022-08-19T02:45:54;25.90;45.10
34989;DHT22;21192;40.182;44.516;2022-08-19T02:48:22;26.00;45.10
34989;DHT22;21192;40.182;44.516;2022-08-19T02:50:49;26.00;44.90
34989;DHT22;21192;40.182;44.516;2022-08-19T02:53:24;26.10;44.80
34989;DHT22;21192;40.182;44.516;2022-08-19T02:55:51;26.30;44.60
34989;DHT22;21192;40.182;44.516;2022-08-19T02:58:18;26.60;44.30
34989;DHT22;21192;40.182;44.516;2022-08-19T03:00:47;26.80;44.00
34989;DHT22;21192;40.182;44.516;2022-08-19T03:03:14;27.10;43.60
34989;DHT22;21192;40.182;44.516;2022-08-19T03:05:41;27.30;43.20
34989;DHT22;21192;40.182;44.516;2022-08-19T03:08:08;27.40;43.00
34989;DHT22;21192;40.182;44.516;2022-08-19T03:10:47;27.60;42.80
34989;DHT22;21192;40.182;44.516;2022-08-19T03:13:16;27.80;42.50
34989;DHT22;21192;40.182;44.516;2022-08-19T03:15:44;28.00;42.10
34989;DHT22;21192;40.182;44.516;2022-08-19T03:18:10;28.30;41.80
34989;DHT22;21192;40.182;44.516;2022-08-19T03:20:44;28.70;42.20
34989;DHT22;21192;40.182;44.516;2022-08-19T03:23:11;29.00;41.70
34989;DHT22;21192;40.182;44.516;2022-08-19T03:25:40;29.40;40.80
34989;DHT22;21192;40.182;44.516;2022-08-19T03:28:12;29.60;40.10
34989;DHT22;21192;40.182;44.516;2022-08-19T03:30:39;29.70;39.90
34989;DHT22;21192;40.182;44.516;2022-08-19T03:33:08;29.50;39.90
34989;DHT22;21192;40.182;44.516;2022-08-19T03:35:34;29.30;40.10
34989;DHT22;21192;40.182;44.516;2022-08-19T03:38:06;29.30;40.30
34989;DHT22;21192;40.182;44.516;2022-08-19T03:40:35;29.30;40.40
34989;DHT22;21192;40.182;44.516;2022-08-19T03:43:02;29.30;40.30
34989;DHT22;21192;40.182;44.516;2022-08-19T03:45:28;29.30;40.30
34989;DHT22;21192;40.182;44.516;2022-08-19T03:47:55;29.70;40.20
34989;DHT22;21192;40.182;44.516;2022-08-19T03:50:21;30.00;39.90
34989;DHT22;21192;40.182;44.516;2022-08-19T03:52:51;30.30;39.70
34989;DHT22;21192;40.182;44.516;2022-08-19T03:55:18;30.70;39.40
34989;DHT22;21192;40.182;44.516;2022-08-19T03:57:44;30.60;39.00
34989;DHT22;21192;40.182;44.516;2022-08-19T04:00:12;30.60;39.00
34989;DHT22;21192;40.182;44.516;2022-08-19T04:02:38;30.80;38.90
34989;DHT22;21192;40.182;44.516;2022-08-19T04:05:04;30.80;38.70
34989;DHT22;21192;40.182;44.516;2022-08-19T04:07:30;30.50;39.00
34989;DHT22;21192;40.182;44.516;2022-08-19T04:09:56;30.30;39.40
34989;DHT22;21192;40.182;44.516;2022-08-19T04:12:22;30.00;39.70
34989;DHT22;21192;40.182;44.516;2022-08-19T04:14:48;30.10;40.00
34989;DHT22;21192;40.182;44.516;2022-08-19T04:17:14;30.30;39.90
34989;DHT22;21192;40.182;44.516;2022-08-19T04:19:40;31.00;39.50
34989;DHT22;21192;40.182;44.516;2022-08-19T04:22:08;32.10;38.90
34989;DHT22;21192;40.182;44.516;2022-08-19T04:24:36;33.30;38.10
34989;DHT22;21192;40.182;44.516;2022-08-19T04:27:02;34.50;36.90
34989;DHT22;21192;40.182;44.516;2022-08-19T04:29:30;35.60;35.40
34989;DHT22;21192;40.182;44.516;2022-08-19T04:31:56;36.50;33.90
34989;DHT22;21192;40.182;44.516;2022-08-19T04:34:25;37.40;32.80
34989;DHT22;21192;40.182;44.516;2022-08-19T04:36:53;38.20;32.10
34989;DHT22;21192;40.182;44.516;2022-08-19T04:39:24;38.80;32.50
34989;DHT22;21192;40.182;44.516;2022-08-19T04:42:13;39.50;32.10
34989;DHT22;21192;40.182;44.516;2022-08-19T04:44:58;40.10;31.80
34989;DHT22;21192;40.182;44.516;2022-08-19T04:47:25;39.10;32.00
34989;DHT22;21192;40.182;44.516;2022-08-19T04:49:51;38.40;32.90
34989;DHT22;21192;40.182;44.516;2022-08-19T04:52:17;38.20;33.20
34989;DHT22;21192;40.182;44.516;2022-08-19T04:54:43;37.80;32.50
34989;DHT22;21192;40.182;44.516;2022-08-19T04:57:09;37.80;31.90
34989;DHT22;21192;40.182;44.516;2022-08-19T04:59:37;38.60;30.70
34989;DHT22;21192;40.182;44.516;2022-08-19T05:02:04;39.00;30.70
34989;DHT22;21192;40.182;44.516;2022-08-19T05:04:31;38.00;30.80
34989;DHT22;21192;40.182;44.516;2022-08-19T05:06:59;37.60;31.80
34989;DHT22;21192;40.182;44.516;2022-08-19T05:09:26;37.00;32.10
34989;DHT22;21192;40.182;44.516;2022-08-19T05:11:52;36.00;31.20
34989;DHT22;21192;40.182;44.516;2022-08-19T05:14:19;35.40;32.20
34989;DHT22;21192;40.182;44.516;2022-08-19T05:16:47;34.90;32.50
34989;DHT22;21192;40.182;44.516;2022-08-19T05:19:13;36.00;34.30
34989;DHT22;21192;40.182;44.516;2022-08-19T05:21:59;37.40;34.30
34989;DHT22;21192;40.182;44.516;2022-08-19T05:24:44;37.70;30.60
34989;DHT22;21192;40.182;44.516;2022-08-19T05:27:10;38.00;31.10
34989;DHT22;21192;40.182;44.516;2022-08-19T05:29:36;38.60;31.60
34989;DHT22;21192;40.182;44.516;2022-08-19T05:32:04;37.90;32.00
34989;DHT22;21192;40.182;44.516;2022-08-19T05:34:31;36.80;32.70
34989;DHT22;21192;40.182;44.516;2022-08-19T05:36:59;36.00;31.70
34989;DHT22;21192;40.182;44.516;2022-08-19T05:39:27;35.30;31.90
34989;DHT22;21192;40.182;44.516;2022-08-19T05:41:57;34.70;33.10
34989;DHT22;21192;40.182;44.516;2022-08-19T05:44:28;34.20;32.60
34989;DHT22;21192;40.182;44.516;2022-08-19T05:47:03;33.60;33.90
34989;DHT22;21192;40.182;44.516;2022-08-19T05:49:31;33.30;36.30
34989;DHT22;21192;40.182;44.516;2022-08-19T05:51:58;33.10;39.00
34989;DHT22;21192;40.182;44.516;2022-08-19T05:54:25;33.10;39.30
34989;DHT22;21192;40.182;44.516;2022-08-19T05:56:52;32.90;37.90
34989;DHT22;21192;40.182;44.516;2022-08-19T05:59:19;32.80;36.10
34989;DHT22;21192;40.182;44.516;2022-08-19T06:01:48;32.50;35.20
34989;DHT22;21192;40.182;44.516;2022-08-19T06:04:19;32.30;35.40
34989;DHT22;21192;40.182;44.516;2022-08-19T06:06:47;32.30;35.40
34989;DHT22;21192;40.182;44.516;2022-08-19T06:09:13;32.30;35.20
34989;DHT22;21192;40.182;44.516;2022-08-19T06:11:49;32.20;35.20
34989;DHT22;21192;40.182;44.516;2022-08-19T06:14:20;32.20;35.50
34989;DHT22;21192;40.182;44.516;2022-08-19T06:16:47;32.20;36.80
34989;DHT22;21192;40.182;44.516;2022-08-19T06:19:16;32.20;37.90
34989;DHT22;21192;40.182;44.516;2022-08-19T06:21:44;32.20;39.30
34989;DHT22;21192;40.182;44.516;2022-08-19T06:24:13;32.20;41.00
34989;DHT22;21192;40.182;44.516;2022-08-19T06:26:43;32.20;41.40
34989;DHT22;21192;40.182;44.516;2022-08-19T06:29:12;32.10;40.80
34989;DHT22;21192;40.182;44.516;2022-08-19T06:31:42;31.80;39.30
34989;DHT22;21192;40.182;44.516;2022-08-19T06:34:09;31.50;41.40
34989;DHT22;21192;40.182;44.516;2022-08-19T06:36:37;31.40;41.00
34989;DHT22;21192;40.182;44.516;2022-08-19T06:39:09;31.50;42.20
34989;DHT22;21192;40.182;44.516;2022-08-19T06:41:39;31.60;41.50
34989;DHT22;21192;40.182;44.516;2022-08-19T06:44:06;31.70;42.10
34989;DHT22;21192;40.182;44.516;2022-08-19T06:46:32;31.70;41.40
34989;DHT22;21192;40.182;44.516;2022-08-19T06:48:59;31.70;40.30
34989;DHT22;21192;40.182;44.516;2022-08-19T06:51:26;31.90;40.60
34989;DHT22;21192;40.182;44.516;2022-08-19T06:53:54;32.00;40.40
34989;DHT22;21192;40.182;44.516;2022-08-19T06:56:24;32.00;39.60
34989;DHT22;21192;40.182;44.516;2022-08-19T06:58:57;31.90;39.50
34989;DHT22;21192;40.182;44.516;2022-08-19T07:01:23;31.80;41.60
34989;DHT22;21192;40.182;44.516;2022-08-19T07:03:49;31.80;42.10
34989;DHT22;21192;40.182;44.516;2022-08-19T07:06:17;31.80;42.40
34989;DHT22;21192;40.182;44.516;2022-08-19T07:08:44;31.70;41.30
34989;DHT22;21192;40.182;44.516;2022-08-19T07:11:12;31.60;40.20
34989;DHT22;21192;40.182;44.516;2022-08-19T07:13:39;31.60;39.20
34989;DHT22;21192;40.182;44.516;2022-08-19T07:16:10;31.60;38.90
34989;DHT22;21192;40.182;44.516;2022-08-19T07:18:37;31.50;38.60
34989;DHT22;21192;40.182;44.516;2022-08-19T07:21:05;31.30;38.70
34989;DHT22;21192;40.182;44.516;2022-08-19T07:23:31;31.40;40.70
34989;DHT22;21192;40.182;44.516;2022-08-19T07:25:58;31.40;43.90
34989;DHT22;21192;40.182;44.516;2022-08-19T07:28:24;31.30;41.80
34989;DHT22;21192;40.182;44.516;2022-08-19T07:30:50;31.10;44.10
34989;DHT22;21192;40.182;44.516;2022-08-19T07:33:16;30.80;42.90
34989;DHT22;21192;40.182;44.516;2022-08-19T07:35:43;30.70;43.70
34989;DHT22;21192;40.182;44.516;2022-08-19T07:38:10;30.80;44.40
34989;DHT22;21192;40.182;44.516;2022-08-19T07:40:36;30.90;45.90
34989;DHT22;21192;40.182;44.516;2022-08-19T07:43:02;30.80;44.70
34989;DHT22;21192;40.182;44.516;2022-08-19T07:45:28;30.80;44.80
34989;DHT22;21192;40.182;44.516;2022-08-19T07:47:54;30.80;44.80
34989;DHT22;21192;40.182;44.516;2022-08-19T07:50:21;30.90;45.20
34989;DHT22;21192;40.182;44.516;2022-08-19T07:52:48;31.10;44.90
34989;DHT22;21192;40.182;44.516;2022-08-19T07:55:18;31.30;44.20
34989;DHT22;21192;40.182;44.516;2022-08-19T07:57:44;31.30;43.00
34989;DHT22;21192;40.182;44.516;2022-08-19T08:00:10;31.20;42.70
34989;DHT22;21192;40.182;44.516;2022-08-19T08:02:36;31.20;42.60
34989;DHT22;21192;40.182;44.516;2022-08-19T08:05:03;31.30;42.20
34989;DHT22;21192;40.182;44.516;2022-08-19T08:07:48;31.20;42.60
34989;DHT22;21192;40.182;44.516;2022-08-19T08:10:32;31.20;42.40
34989;DHT22;21192;40.182;44.516;2022-08-19T08:12:58;31.30;41.50
34989;DHT22;21192;40.182;44.516;2022-08-19T08:15:24;31.40;41.00
34989;DHT22;21192;40.182;44.516;2022-08-19T08:17:50;31.50;40.60
34989;DHT22;21192;40.182;44.516;2022-08-19T08:20:18;31.30;40.30
34989;DHT22;21192;40.182;44.516;2022-08-19T08:22:47;31.20;40.30
34989;DHT22;21192;40.182;44.516;2022-08-19T08:25:32;31.20;40.10
34989;DHT22;21192;40.182;44.516;2022-08-19T08:27:58;31.30;39.50
34989;DHT22;21192;40.182;44.516;2022-08-19T08:30:26;31.40;39.40
34989;DHT22;21192;40.182;44.516;2022-08-19T08:32:53;31.40;39.50
34989;DHT22;21192;40.182;44.516;2022-08-19T08:35:22;31.50;39.40
34989;DHT22;21192;40.182;44.516;2022-08-19T08:37:51;31.60;39.20
34989;DHT22;21192;40.182;44.516;2022-08-19T08:40:38;31.70;38.90
34989;DHT22;21192;40.182;44.516;2022-08-19T08:43:27;31.70;37.90
34989;DHT22;21192;40.182;44.516;2022-08-19T08:46:05;31.70;37.80
34989;DHT22;21192;40.182;44.516;2022-08-19T08:51:54;31.70;37.80
34989;DHT22;21192;40.182;44.516;2022-08-19T08:54:24;31.70;37.80
34989;DHT22;21192;40.182;44.516;2022-08-19T08:56:53;31.80;37.50
34989;DHT22;21192;40.182;44.516;2022-08-19T08:59:26;31.80;37.50
34989;DHT22;21192;40.182;44.516;2022-08-19T09:01:53;31.90;37.50
34989;DHT22;21192;40.182;44.516;2022-08-19T09:04:20;31.90;37.00
34989;DHT22;21192;40.182;44.516;2022-08-19T09:09:41;31.90;36.10
34989;DHT22;21192;40.182;44.516;2022-08-19T09:15:06;31.90;33.80
34989;DHT22;21192;40.182;44.516;2022-08-19T09:17:33;31.90;33.20
34989;DHT22;21192;40.182;44.516;2022-08-19T09:22:35;32.10;31.20
34989;DHT22;21192;40.182;44.516;2022-08-19T09:25:03;32.20;31.30
34989;DHT22;21192;40.182;44.516;2022-08-19T09:27:30;32.30;32.40
34989;DHT22;21192;40.182;44.516;2022-08-19T09:29:58;32.30;31.20
34989;DHT22;21192;40.182;44.516;2022-08-19T09:32:24;32.30;30.00
34989;DHT22;21192;40.182;44.516;2022-08-19T09:34:51;32.40;30.00
34989;DHT22;21192;40.182;44.516;2022-08-19T09:37:20;32.50;31.40
34989;DHT22;21192;40.182;44.516;2022-08-19T09:39:47;32.60;34.00
34989;DHT22;21192;40.182;44.516;2022-08-19T09:42:13;32.60;30.60
34989;DHT22;21192;40.182;44.516;2022-08-19T09:44:40;32.70;29.70
34989;DHT22;21192;40.182;44.516;2022-08-19T09:47:07;32.80;29.30
34989;DHT22;21192;40.182;44.516;2022-08-19T09:49:33;32.90;28.80
34989;DHT22;21192;40.182;44.516;2022-08-19T09:51:59;33.00;28.30
34989;DHT22;21192;40.182;44.516;2022-08-19T09:54:26;33.00;28.30
34989;DHT22;21192;40.182;44.516;2022-08-19T09:56:57;33.00;28.30
34989;DHT22;21192;40.182;44.516;2022-08-19T09:59:23;33.00;27.70
34989;DHT22;21192;40.182;44.516;2022-08-19T10:01:49;33.10;28.30
34989;DHT22;21192;40.182;44.516;2022-08-19T10:04:16;33.10;28.50
34989;DHT22;21192;40.182;44.516;2022-08-19T10:06:42;33.10;28.70
34989;DHT22;21192;40.182;44.516;2022-08-19T10:09:09;33.10;28.80
34989;DHT22;21192;40.182;44.516;2022-08-19T10:11:39;33.10;28.40
34989;DHT22;21192;40.182;44.516;2022-08-19T10:14:06;33.10;28.10
34989;DHT22;21192;40.182;44.516;2022-08-19T10:16:33;33.10;27.90
34989;DHT22;21192;40.182;44.516;2022-08-19T10:18:59;33.20;28.20
34989;DHT22;21192;40.182;44.516;2022-08-19T10:21:28;33.20;28.40
34989;DHT22;21192;40.182;44.516;2022-08-19T10:23:57;33.20;28.70
34989;DHT22;21192;40.182;44.516;2022-08-19T10:26:26;33.30;28.40
34989;DHT22;21192;40.182;44.516;2022-08-19T10:28:53;33.20;28.30
34989;DHT22;21192;40.182;44.516;2022-08-19T10:31:26;33.30;28.50
34989;DHT22;21192;40.182;44.516;2022-08-19T10:33:53;33.30;28.20
34989;DHT22;21192;40.182;44.516;2022-08-19T10:36:26;33.40;27.00
34989;DHT22;21192;40.182;44.516;2022-08-19T10:38:55;33.50;26.40
34989;DHT22;21192;40.182;44.516;2022-08-19T10:41:26;33.50;26.40
34989;DHT22;21192;40.182;44.516;2022-08-19T10:43:55;33.60;27.10
34989;DHT22;21192;40.182;44.516;2022-08-19T10:46:23;33.60;26.50
34989;DHT22;21192;40.182;44.516;2022-08-19T10:48:50;33.60;25.40
34989;DHT22;21192;40.182;44.516;2022-08-19T10:51:16;33.70;26.10
34989;DHT22;21192;40.182;44.516;2022-08-19T10:54:01;33.70;25.70
34989;DHT22;21192;40.182;44.516;2022-08-19T10:56:28;33.80;25.00
34989;DHT22;21192;40.182;44.516;2022-08-19T10:59:12;33.90;25.20
34989;DHT22;21192;40.182;44.516;2022-08-19T11:01:40;34.00;25.60
34989;DHT22;21192;40.182;44.516;2022-08-19T11:04:06;34.00;25.60
34989;DHT22;21192;40.182;44.516;2022-08-19T11:06:36;34.10;25.40
34989;DHT22;21192;40.182;44.516;2022-08-19T11:09:04;34.20;24.90
34989;DHT22;21192;40.182;44.516;2022-08-19T11:11:31;34.20;25.10
34989;DHT22;21192;40.182;44.516;2022-08-19T11:13:58;34.20;25.20
34989;DHT22;21192;40.182;44.516;2022-08-19T11:16:25;34.20;25.10
34989;DHT22;21192;40.182;44.516;2022-08-19T11:18:57;34.20;26.70
34989;DHT22;21192;40.182;44.516;2022-08-19T11:21:32;34.10;26.60
34989;DHT22;21192;40.182;44.516;2022-08-19T11:24:05;34.20;25.90
34989;DHT22;21192;40.182;44.516;2022-08-19T11:26:32;34.20;26.40
34989;DHT22;21192;40.182;44.516;2022-08-19T11:28:59;34.20;25.90
34989;DHT22;21192;40.182;44.516;2022-08-19T11:31:29;34.30;30.50
34989;DHT22;21192;40.182;44.516;2022-08-19T11:33:58;34.30;28.20
34989;DHT22;21192;40.182;44.516;2022-08-19T11:36:26;34.30;26.50
34989;DHT22;21192;40.182;44.516;2022-08-19T11:38:53;34.30;25.80
34989;DHT22;21192;40.182;44.516;2022-08-19T11:41:21;34.40;25.70
34989;DHT22;21192;40.182;44.516;2022-08-19T11:43:49;34.40;25.60
34989;DHT22;21192;40.182;44.516;2022-08-19T11:46:16;34.40;25.50
34989;DHT22;21192;40.182;44.516;2022-08-19T11:48:43;34.40;27.40
34989;DHT22;21192;40.182;44.516;2022-08-19T11:51:11;34.50;26.90
34989;DHT22;21192;40.182;44.516;2022-08-19T11:53:37;34.40;26.80
34989;DHT22;21192;40.182;44.516;2022-08-19T11:56:05;34.40;26.50
34989;DHT22;21192;40.182;44.516;2022-08-19T11:58:32;34.40;25.90
34989;DHT22;21192;40.182;44.516;2022-08-19T12:00:58;34.50;25.80
34989;DHT22;21192;40.182;44.516;2022-08-19T12:03:24;34.50;25.80
34989;DHT22;21192;40.182;44.516;2022-08-19T12:05:51;34.50;28.90
34989;DHT22;21192;40.182;44.516;2022-08-19T12:08:18;34.50;28.70
34989;DHT22;21192;40.182;44.516;2022-08-19T12:10:44;34.50;28.00
34989;DHT22;21192;40.182;44.516;2022-08-19T12:13:11;34.50;26.50
34989;DHT22;21192;40.182;44.516;2022-08-19T12:15:40;34.50;25.80
34989;DHT22;21192;40.182;44.516;2022-08-19T12:18:07;34.60;25.60
34989;DHT22;21192;40.182;44.516;2022-08-19T12:20:38;34.70;27.70
34989;DHT22;21192;40.182;44.516;2022-08-19T12:23:06;34.70;26.50
34989;DHT22;21192;40.182;44.516;2022-08-19T12:25:32;34.70;25.60
34989;DHT22;21192;40.182;44.516;2022-08-19T12:28:00;34.80;26.20
34989;DHT22;21192;40.182;44.516;2022-08-19T12:30:27;34.80;25.80
34989;DHT22;21192;40.182;44.516;2022-08-19T12:32:53;34.70;25.70
34989;DHT22;21192;40.182;44.516;2022-08-19T12:35:19;34.80;25.80
34989;DHT22;21192;40.182;44.516;2022-08-19T12:37:47;34.80;26.20
34989;DHT22;21192;40.182;44.516;2022-08-19T12:40:17;34.80;25.90
34989;DHT22;21192;40.182;44.516;2022-08-19T12:42:44;34.80;26.00
34989;DHT22;21192;40.182;44.516;2022-08-19T12:45:12;34.90;26.10
34989;DHT22;21192;40.182;44.516;2022-08-19T12:47:39;34.80;26.20
34989;DHT22;21192;40.182;44.516;2022-08-19T12:50:06;34.80;26.80
34989;DHT22;21192;40.182;44.516;2022-08-19T12:52:35;34.80;26.60
34989;DHT22;21192;40.182;44.516;2022-08-19T12:55:07;34.80;26.80
34989;DHT22;21192;40.182;44.516;2022-08-19T12:57:33;34.80;28.60
34989;DHT22;21192;40.182;44.516;2022-08-19T13:00:10;34.80;29.50
34989;DHT22;21192;40.182;44.516;2022-08-19T13:02:40;34.80;28.80
34989;DHT22;21192;40.182;44.516;2022-08-19T13:05:11;34.80;29.60
34989;DHT22;21192;40.182;44.516;2022-08-19T13:07:38;34.80;28.10
34989;DHT22;21192;40.182;44.516;2022-08-19T13:10:06;34.80;27.30
34989;DHT22;21192;40.182;44.516;2022-08-19T13:12:32;34.70;27.70
34989;DHT22;21192;40.182;44.516;2022-08-19T13:14:58;34.70;28.70
34989;DHT22;21192;40.182;44.516;2022-08-19T13:17:24;34.60;26.90
34989;DHT22;21192;40.182;44.516;2022-08-19T13:19:50;34.70;25.90
34989;DHT22;21192;40.182;44.516;2022-08-19T13:22:16;34.60;26.10
34989;DHT22;21192;40.182;44.516;2022-08-19T13:24:42;34.60;27.10
34989;DHT22;21192;40.182;44.516;2022-08-19T13:27:08;34.60;28.10
34989;DHT22;21192;40.182;44.516;2022-08-19T13:29:34;34.60;29.00
34989;DHT22;21192;40.182;44.516;2022-08-19T13:32:18;34.50;27.40
34989;DHT22;21192;40.182;44.516;2022-08-19T13:35:03;34.60;26.40
34989;DHT22;21192;40.182;44.516;2022-08-19T13:37:29;34.60;27.30
34989;DHT22;21192;40.182;44.516;2022-08-19T13:40:17;34.60;27.00
34989;DHT22;21192;40.182;44.516;2022-08-19T13:42:50;34.60;30.90
34989;DHT22;21192;40.182;44.516;2022-08-19T13:45:20;34.50;26.90
34989;DHT22;21192;40.182;44.516;2022-08-19T13:47:48;34.50;25.70
34989;DHT22;21192;40.182;44.516;2022-08-19T13:50:18;34.50;25.40
34989;DHT22;21192;40.182;44.516;2022-08-19T13:52:45;34.50;24.80
34989;DHT22;21192;40.182;44.516;2022-08-19T13:55:13;34.40;24.70
34989;DHT22;21192;40.182;44.516;2022-08-19T13:57:40;34.40;24.90
34989;DHT22;21192;40.182;44.516;2022-08-19T14:00:11;34.40;25.00
34989;DHT22;21192;40.182;44.516;2022-08-19T14:02:38;34.40;25.20
34989;DHT22;21192;40.182;44.516;2022-08-19T14:05:10;34.40;25.20
34989;DHT22;21192;40.182;44.516;2022-08-19T14:07:36;34.30;26.10
34989;DHT22;21192;40.182;44.516;2022-08-19T14:10:04;34.30;25.90
34989;DHT22;21192;40.182;44.516;2022-08-19T14:12:32;34.30;25.50
34989;DHT22;21192;40.182;44.516;2022-08-19T14:14:59;34.20;26.70
34989;DHT22;21192;40.182;44.516;2022-08-19T14:17:25;34.20;25.20
34989;DHT22;21192;40.182;44.516;2022-08-19T14:19:57;34.20;24.80
34989;DHT22;21192;40.182;44.516;2022-08-19T14:22:23;34.20;25.30
34989;DHT22;21192;40.182;44.516;2022-08-19T14:24:49;34.20;25.00
34989;DHT22;21192;40.182;44.516;2022-08-19T14:27:15;34.10;24.70
34989;DHT22;21192;40.182;44.516;2022-08-19T14:29:41;34.10;24.70
34989;DHT22;21192;40.182;44.516;2022-08-19T14:32:07;34.00;24.80
34989;DHT22;21192;40.182;44.516;2022-08-19T14:34:33;34.00;24.80
34989;DHT22;21192;40.182;44.516;2022-08-19T14:37:02;34.00;24.80
34989;DHT22;21192;40.182;44.516;2022-08-19T14:39:28;34.00;25.50
34989;DHT22;21192;40.182;44.516;2022-08-19T14:41:54;33.90;25.60
34989;DHT22;21192;40.182;44.516;2022-08-19T14:44:21;33.90;25.40
34989;DHT22;21192;40.182;44.516;2022-08-19T14:46:48;33.90;26.40
34989;DHT22;21192;40.182;44.516;2022-08-19T14:49:14;33.90;26.20
34989;DHT22;21192;40.182;44.516;2022-08-19T14:51:40;33.90;25.80
34989;DHT22;21192;40.182;44.516;2022-08-19T14:54:05;33.80;25.80
34989;DHT22;21192;40.182;44.516;2022-08-19T14:56:31;33.80;25.90
34989;DHT22;21192;40.182;44.516;2022-08-19T14:58:57;33.70;25.60
34989;DHT22;21192;40.182;44.516;2022-08-19T15:01:26;33.70;25.30
34989;DHT22;21192;40.182;44.516;2022-08-19T15:03:52;33.70;25.90
34989;DHT22;21192;40.182;44.516;2022-08-19T15:06:20;33.70;27.60
34989;DHT22;21192;40.182;44.516;2022-08-19T15:08:47;33.70;28.30
34989;DHT22;21192;40.182;44.516;2022-08-19T15:11:18;33.60;28.50
34989;DHT22;21192;40.182;44.516;2022-08-19T15:13:47;33.60;28.80
34989;DHT22;21192;40.182;44.516;2022-08-19T15:16:14;33.50;28.80
34989;DHT22;21192;40.182;44.516;2022-08-19T15:18:41;33.40;28.90
34989;DHT22;21192;40.182;44.516;2022-08-19T15:21:12;33.40;29.30
34989;DHT22;21192;40.182;44.516;2022-08-19T15:23:39;33.40;29.70
34989;DHT22;21192;40.182;44.516;2022-08-19T15:26:05;33.40;29.70
34989;DHT22;21192;40.182;44.516;2022-08-19T15:28:32;33.30;29.60
34989;DHT22;21192;40.182;44.516;2022-08-19T15:30:58;33.30;29.70
34989;DHT22;21192;40.182;44.516;2022-08-19T15:33:24;33.30;30.00
34989;DHT22;21192;40.182;44.516;2022-08-19T15:35:51;33.20;30.00